sensor_id;sensor_type;location;lat;lon;timestamp;P1;durP1;ratioP1;P2;durP2;ratioP2
40707;SDS011;26392;42.696;23.350;2022-11-21T00:00:42;10.68;;;5.20;;
40707;SDS011;26392;42.696;23.350;2022-11-21T00:03:10;8.25;;;4.63;;
40707;SDS011;26392;42.696;23.350;2022-11-21T00:05:37;10.25;;;5.18;;
40707;SDS011;26392;42.696;23.350;2022-11-21T00:08:05;9.60;;;4.78;;
40707;SDS011;26392;42.696;23.350;2022-11-21T00:10:31;13.55;;;5.28;;
40707;SDS011;26392;42.696;23.350;2022-11-21T00:12:56;8.23;;;4.88;;
40707;SDS011;26392;42.696;23.350;2022-11-21T00:15:23;13.50;;;5.10;;
40707;SDS011;26392;42.696;23.350;2022-11-21T00:17:50;9.57;;;5.07;;
40707;SDS011;26392;42.696;23.350;2022-11-21T00:20:16;8.63;;;4.18;;
40707;SDS011;26392;42.696;23.350;2022-11-21T00:22:42;10.43;;;4.93;;
40707;SDS011;26392;42.696;23.350;2022-11-21T00:25:08;7.97;;;4.35;;
40707;SDS011;26392;42.696;23.350;2022-11-21T00:27:34;6.72;;;4.25;;
40707;SDS011;26392;42.696;23.350;2022-11-21T00:29:59;9.98;;;3.97;;
40707;SDS011;26392;42.696;23.350;2022-11-21T00:32:25;7.55;;;3.47;;
40707;SDS011;26392;42.696;23.350;2022-11-21T00:34:50;6.97;;;3.50;;
40707;SDS011;26392;42.696;23.350;2022-11-21T00:37:15;6.88;;;3.08;;
40707;SDS011;26392;42.696;23.350;2022-11-21T00:39:41;6.38;;;3.53;;
40707;SDS011;26392;42.696;23.350;2022-11-21T00:42:06;7.63;;;3.90;;
40707;SDS011;26392;42.696;23.350;2022-11-21T00:44:32;6.80;;;3.45;;
40707;SDS011;26392;42.696;23.350;2022-11-21T00:46:57;7.80;;;4.40;;
40707;SDS011;26392;42.696;23.350;2022-11-21T00:49:22;8.35;;;5.65;;
40707;SDS011;26392;42.696;23.350;2022-11-21T00:51:48;8.68;;;5.90;;
40707;SDS011;26392;42.696;23.350;2022-11-21T00:54:13;11.88;;;6.45;;
40707;SDS011;26392;42.696;23.350;2022-11-21T00:56:38;11.90;;;6.95;;
40707;SDS011;26392;42.696;23.350;2022-11-21T00:59:04;15.40;;;6.43;;
40707;SDS011;26392;42.696;23.350;2022-11-21T01:01:29;13.38;;;7.90;;
40707;SDS011;26392;42.696;23.350;2022-11-21T01:03:56;10.85;;;6.50;;
40707;SDS011;26392;42.696;23.350;2022-11-21T01:06:22;20.90;;;7.15;;
40707;SDS011;26392;42.696;23.350;2022-11-21T01:08:47;12.82;;;6.97;;
40707;SDS011;26392;42.696;23.350;2022-11-21T01:11:15;14.98;;;7.63;;
40707;SDS011;26392;42.696;23.350;2022-11-21T01:13:42;18.80;;;9.32;;
40707;SDS011;26392;42.696;23.350;2022-11-21T01:16:09;19.17;;;11.63;;
40707;SDS011;26392;42.696;23.350;2022-11-21T01:18:36;23.15;;;11.63;;
40707;SDS011;26392;42.696;23.350;2022-11-21T01:21:05;18.33;;;10.23;;
40707;SDS011;26392;42.696;23.350;2022-11-21T01:23:33;18.35;;;9.75;;
40707;SDS011;26392;42.696;23.350;2022-11-21T01:26:02;20.08;;;10.00;;
40707;SDS011;26392;42.696;23.350;2022-11-21T01:28:29;18.98;;;10.27;;
40707;SDS011;26392;42.696;23.350;2022-11-21T01:31:01;17.85;;;9.93;;
40707;SDS011;26392;42.696;23.350;2022-11-21T01:33:37;15.88;;;9.07;;
40707;SDS011;26392;42.696;23.350;2022-11-21T01:36:07;16.15;;;9.10;;
40707;SDS011;26392;42.696;23.350;2022-11-21T01:38:41;15.82;;;9.40;;
40707;SDS011;26392;42.696;23.350;2022-11-21T01:41:08;16.67;;;9.77;;
40707;SDS011;26392;42.696;23.350;2022-11-21T01:43:35;14.75;;;9.60;;
40707;SDS011;26392;42.696;23.350;2022-11-21T01:51:19;17.40;;;8.35;;
40707;SDS011;26392;42.696;23.350;2022-11-21T01:53:46;12.90;;;8.60;;
40707;SDS011;26392;42.696;23.350;2022-11-21T01:56:18;13.70;;;7.60;;
40707;SDS011;26392;42.696;23.350;2022-11-21T01:58:44;17.15;;;8.45;;
40707;SDS011;26392;42.696;23.350;2022-11-21T02:01:11;12.88;;;8.07;;
40707;SDS011;26392;42.696;23.350;2022-11-21T02:03:37;15.77;;;8.32;;
40707;SDS011;26392;42.696;23.350;2022-11-21T02:06:04;15.13;;;9.35;;
40707;SDS011;26392;42.696;23.350;2022-11-21T02:08:33;18.10;;;8.73;;
40707;SDS011;26392;42.696;23.350;2022-11-21T02:13:53;16.67;;;9.23;;
40707;SDS011;26392;42.696;23.350;2022-11-21T02:16:20;15.38;;;8.68;;
40707;SDS011;26392;42.696;23.350;2022-11-21T02:18:46;13.05;;;7.95;;
40707;SDS011;26392;42.696;23.350;2022-11-21T02:21:15;13.18;;;6.70;;
40707;SDS011;26392;42.696;23.350;2022-11-21T02:24:00;10.73;;;6.85;;
40707;SDS011;26392;42.696;23.350;2022-11-21T02:26:29;11.63;;;7.18;;
40707;SDS011;26392;42.696;23.350;2022-11-21T02:28:55;15.10;;;7.97;;
40707;SDS011;26392;42.696;23.350;2022-11-21T02:31:21;13.77;;;7.28;;
40707;SDS011;26392;42.696;23.350;2022-11-21T02:33:46;11.90;;;7.88;;
40707;SDS011;26392;42.696;23.350;2022-11-21T02:39:02;10.07;;;5.75;;
40707;SDS011;26392;42.696;23.350;2022-11-21T02:41:30;9.77;;;5.88;;
40707;SDS011;26392;42.696;23.350;2022-11-21T02:44:03;11.15;;;7.30;;
40707;SDS011;26392;42.696;23.350;2022-11-21T02:46:34;15.75;;;7.45;;
40707;SDS011;26392;42.696;23.350;2022-11-21T02:49:00;13.02;;;7.50;;
40707;SDS011;26392;42.696;23.350;2022-11-21T02:51:30;10.02;;;5.40;;
40707;SDS011;26392;42.696;23.350;2022-11-21T02:53:55;9.80;;;4.68;;
40707;SDS011;26392;42.696;23.350;2022-11-21T02:56:21;7.43;;;4.75;;
40707;SDS011;26392;42.696;23.350;2022-11-21T02:58:46;12.38;;;5.65;;
40707;SDS011;26392;42.696;23.350;2022-11-21T03:01:11;8.35;;;4.85;;
40707;SDS011;26392;42.696;23.350;2022-11-21T03:03:37;7.97;;;4.65;;
40707;SDS011;26392;42.696;23.350;2022-11-21T03:06:02;10.02;;;4.85;;
40707;SDS011;26392;42.696;23.350;2022-11-21T03:08:28;10.38;;;5.60;;
40707;SDS011;26392;42.696;23.350;2022-11-21T03:10:53;10.43;;;4.68;;
40707;SDS011;26392;42.696;23.350;2022-11-21T03:13:18;9.15;;;3.92;;
40707;SDS011;26392;42.696;23.350;2022-11-21T03:15:44;7.75;;;3.50;;
40707;SDS011;26392;42.696;23.350;2022-11-21T03:18:09;7.95;;;3.67;;
40707;SDS011;26392;42.696;23.350;2022-11-21T03:20:34;6.20;;;3.70;;
40707;SDS011;26392;42.696;23.350;2022-11-21T03:23:00;6.18;;;3.00;;
40707;SDS011;26392;42.696;23.350;2022-11-21T03:25:26;6.30;;;3.60;;
40707;SDS011;26392;42.696;23.350;2022-11-21T03:27:51;6.85;;;3.55;;
40707;SDS011;26392;42.696;23.350;2022-11-21T03:30:19;9.35;;;3.50;;
40707;SDS011;26392;42.696;23.350;2022-11-21T03:32:45;8.90;;;3.30;;
40707;SDS011;26392;42.696;23.350;2022-11-21T03:35:11;7.20;;;3.83;;
40707;SDS011;26392;42.696;23.350;2022-11-21T03:37:36;7.97;;;4.03;;
40707;SDS011;26392;42.696;23.350;2022-11-21T03:40:01;7.70;;;3.78;;
40707;SDS011;26392;42.696;23.350;2022-11-21T03:42:27;9.07;;;4.07;;
40707;SDS011;26392;42.696;23.350;2022-11-21T03:44:52;9.07;;;4.60;;
40707;SDS011;26392;42.696;23.350;2022-11-21T03:47:18;15.60;;;5.78;;
40707;SDS011;26392;42.696;23.350;2022-11-21T03:49:43;6.60;;;3.55;;
40707;SDS011;26392;42.696;23.350;2022-11-21T03:52:08;7.72;;;3.35;;
40707;SDS011;26392;42.696;23.350;2022-11-21T03:54:34;8.45;;;3.47;;
40707;SDS011;26392;42.696;23.350;2022-11-21T03:56:59;6.28;;;2.97;;
40707;SDS011;26392;42.696;23.350;2022-11-21T03:59:24;7.40;;;3.13;;
40707;SDS011;26392;42.696;23.350;2022-11-21T04:01:50;9.48;;;3.30;;
40707;SDS011;26392;42.696;23.350;2022-11-21T04:04:15;10.80;;;2.90;;
40707;SDS011;26392;42.696;23.350;2022-11-21T04:06:41;6.50;;;2.90;;
40707;SDS011;26392;42.696;23.350;2022-11-21T04:09:06;9.00;;;2.83;;
40707;SDS011;26392;42.696;23.350;2022-11-21T04:11:31;6.97;;;2.97;;
40707;SDS011;26392;42.696;23.350;2022-11-21T04:13:57;3.97;;;2.63;;
40707;SDS011;26392;42.696;23.350;2022-11-21T04:16:22;5.72;;;3.08;;
40707;SDS011;26392;42.696;23.350;2022-11-21T04:18:48;5.43;;;2.72;;
40707;SDS011;26392;42.696;23.350;2022-11-21T04:21:13;6.97;;;3.10;;
40707;SDS011;26392;42.696;23.350;2022-11-21T04:23:38;6.95;;;3.30;;
40707;SDS011;26392;42.696;23.350;2022-11-21T04:26:04;4.50;;;2.97;;
40707;SDS011;26392;42.696;23.350;2022-11-21T04:28:29;6.13;;;2.55;;
40707;SDS011;26392;42.696;23.350;2022-11-21T04:31:00;8.65;;;2.80;;
40707;SDS011;26392;42.696;23.350;2022-11-21T04:33:26;6.60;;;3.10;;
40707;SDS011;26392;42.696;23.350;2022-11-21T04:35:51;7.68;;;2.97;;
40707;SDS011;26392;42.696;23.350;2022-11-21T04:38:17;6.57;;;2.90;;
40707;SDS011;26392;42.696;23.350;2022-11-21T04:40:42;10.50;;;3.28;;
40707;SDS011;26392;42.696;23.350;2022-11-21T04:43:08;10.00;;;4.00;;
40707;SDS011;26392;42.696;23.350;2022-11-21T04:45:34;8.20;;;3.50;;
40707;SDS011;26392;42.696;23.350;2022-11-21T04:47:59;6.85;;;2.85;;
40707;SDS011;26392;42.696;23.350;2022-11-21T04:50:24;8.27;;;3.42;;
40707;SDS011;26392;42.696;23.350;2022-11-21T04:52:54;5.38;;;3.38;;
40707;SDS011;26392;42.696;23.350;2022-11-21T04:55:22;4.40;;;2.78;;
40707;SDS011;26392;42.696;23.350;2022-11-21T04:57:49;6.15;;;2.40;;
40707;SDS011;26392;42.696;23.350;2022-11-21T05:00:15;5.78;;;2.67;;
40707;SDS011;26392;42.696;23.350;2022-11-21T05:02:41;5.65;;;2.50;;
40707;SDS011;26392;42.696;23.350;2022-11-21T05:05:07;10.02;;;2.90;;
40707;SDS011;26392;42.696;23.350;2022-11-21T05:07:33;4.65;;;2.28;;
40707;SDS011;26392;42.696;23.350;2022-11-21T05:09:59;3.08;;;1.85;;
40707;SDS011;26392;42.696;23.350;2022-11-21T05:12:24;4.10;;;2.90;;
40707;SDS011;26392;42.696;23.350;2022-11-21T05:15:08;5.65;;;3.15;;
40707;SDS011;26392;42.696;23.350;2022-11-21T05:17:34;4.55;;;2.53;;
40707;SDS011;26392;42.696;23.350;2022-11-21T05:19:59;2.85;;;1.70;;
40707;SDS011;26392;42.696;23.350;2022-11-21T05:22:24;6.40;;;2.88;;
40707;SDS011;26392;42.696;23.350;2022-11-21T05:24:50;5.32;;;2.33;;
40707;SDS011;26392;42.696;23.350;2022-11-21T05:27:15;20.90;;;8.50;;
40707;SDS011;26392;42.696;23.350;2022-11-21T05:29:41;4.80;;;2.47;;
40707;SDS011;26392;42.696;23.350;2022-11-21T05:32:06;19.60;;;7.22;;
40707;SDS011;26392;42.696;23.350;2022-11-21T05:34:31;7.65;;;4.50;;
40707;SDS011;26392;42.696;23.350;2022-11-21T05:36:57;8.23;;;2.13;;
40707;SDS011;26392;42.696;23.350;2022-11-21T05:39:23;6.45;;;3.10;;
40707;SDS011;26392;42.696;23.350;2022-11-21T05:41:49;7.38;;;1.85;;
40707;SDS011;26392;42.696;23.350;2022-11-21T05:44:14;4.07;;;1.50;;
40707;SDS011;26392;42.696;23.350;2022-11-21T05:46:40;1.67;;;1.02;;
40707;SDS011;26392;42.696;23.350;2022-11-21T05:49:05;3.33;;;1.17;;
40707;SDS011;26392;42.696;23.350;2022-11-21T05:51:31;4.55;;;1.42;;
40707;SDS011;26392;42.696;23.350;2022-11-21T05:53:57;1.67;;;1.10;;
40707;SDS011;26392;42.696;23.350;2022-11-21T05:56:23;0.95;;;0.80;;
40707;SDS011;26392;42.696;23.350;2022-11-21T05:58:49;2.05;;;1.23;;
40707;SDS011;26392;42.696;23.350;2022-11-21T06:01:14;2.70;;;1.08;;
40707;SDS011;26392;42.696;23.350;2022-11-21T06:03:40;3.15;;;0.95;;
40707;SDS011;26392;42.696;23.350;2022-11-21T06:08:35;1.05;;;0.85;;
40707;SDS011;26392;42.696;23.350;2022-11-21T06:11:02;0.80;;;0.65;;
40707;SDS011;26392;42.696;23.350;2022-11-21T06:13:29;0.85;;;0.65;;
40707;SDS011;26392;42.696;23.350;2022-11-21T06:18:26;0.95;;;0.82;;
40707;SDS011;26392;42.696;23.350;2022-11-21T06:20:52;0.88;;;0.70;;
40707;SDS011;26392;42.696;23.350;2022-11-21T06:23:17;1.98;;;1.42;;
40707;SDS011;26392;42.696;23.350;2022-11-21T06:25:43;1.00;;;0.82;;
40707;SDS011;26392;42.696;23.350;2022-11-21T06:28:09;0.85;;;0.70;;
40707;SDS011;26392;42.696;23.350;2022-11-21T06:30:35;3.63;;;0.95;;
40707;SDS011;26392;42.696;23.350;2022-11-21T06:33:02;1.67;;;0.90;;
40707;SDS011;26392;42.696;23.350;2022-11-21T06:35:29;1.40;;;0.70;;
40707;SDS011;26392;42.696;23.350;2022-11-21T06:37:55;1.50;;;0.90;;
40707;SDS011;26392;42.696;23.350;2022-11-21T06:40:21;1.52;;;0.90;;
40707;SDS011;26392;42.696;23.350;2022-11-21T06:42:46;1.05;;;0.70;;
40707;SDS011;26392;42.696;23.350;2022-11-21T06:45:12;1.25;;;0.80;;
40707;SDS011;26392;42.696;23.350;2022-11-21T06:47:37;3.00;;;1.15;;
40707;SDS011;26392;42.696;23.350;2022-11-21T06:50:02;3.20;;;1.20;;
40707;SDS011;26392;42.696;23.350;2022-11-21T06:52:31;0.80;;;0.65;;
40707;SDS011;26392;42.696;23.350;2022-11-21T06:54:57;2.95;;;0.70;;
40707;SDS011;26392;42.696;23.350;2022-11-21T06:57:23;1.52;;;0.80;;
40707;SDS011;26392;42.696;23.350;2022-11-21T06:59:48;1.30;;;0.90;;
40707;SDS011;26392;42.696;23.350;2022-11-21T07:02:13;1.35;;;0.63;;
40707;SDS011;26392;42.696;23.350;2022-11-21T07:04:39;1.33;;;0.85;;
40707;SDS011;26392;42.696;23.350;2022-11-21T07:07:04;1.27;;;0.93;;
40707;SDS011;26392;42.696;23.350;2022-11-21T07:09:30;1.33;;;0.68;;
40707;SDS011;26392;42.696;23.350;2022-11-21T07:11:57;2.38;;;0.95;;
40707;SDS011;26392;42.696;23.350;2022-11-21T07:14:43;3.88;;;0.88;;
40707;SDS011;26392;42.696;23.350;2022-11-21T07:17:12;1.30;;;0.93;;
40707;SDS011;26392;42.696;23.350;2022-11-21T07:19:38;1.83;;;0.93;;
40707;SDS011;26392;42.696;23.350;2022-11-21T07:22:04;2.25;;;1.00;;
40707;SDS011;26392;42.696;23.350;2022-11-21T07:24:29;1.55;;;0.85;;
40707;SDS011;26392;42.696;23.350;2022-11-21T07:26:55;5.60;;;1.08;;
40707;SDS011;26392;42.696;23.350;2022-11-21T07:29:20;2.92;;;1.30;;
40707;SDS011;26392;42.696;23.350;2022-11-21T07:31:46;1.95;;;0.90;;
40707;SDS011;26392;42.696;23.350;2022-11-21T07:34:11;2.60;;;0.95;;
40707;SDS011;26392;42.696;23.350;2022-11-21T07:36:36;3.20;;;1.33;;
40707;SDS011;26392;42.696;23.350;2022-11-21T07:39:02;2.60;;;1.70;;
40707;SDS011;26392;42.696;23.350;2022-11-21T07:41:27;2.85;;;1.75;;
40707;SDS011;26392;42.696;23.350;2022-11-21T07:43:53;2.20;;;1.50;;
40707;SDS011;26392;42.696;23.350;2022-11-21T07:46:18;2.97;;;1.27;;
40707;SDS011;26392;42.696;23.350;2022-11-21T07:48:43;1.95;;;1.10;;
40707;SDS011;26392;42.696;23.350;2022-11-21T07:51:09;1.30;;;1.20;;
40707;SDS011;26392;42.696;23.350;2022-11-21T07:53:35;2.13;;;1.50;;
40707;SDS011;26392;42.696;23.350;2022-11-21T07:56:00;2.95;;;1.50;;
40707;SDS011;26392;42.696;23.350;2022-11-21T07:58:26;2.35;;;1.50;;
40707;SDS011;26392;42.696;23.350;2022-11-21T08:00:52;2.13;;;1.50;;
40707;SDS011;26392;42.696;23.350;2022-11-21T08:03:17;2.28;;;1.60;;
40707;SDS011;26392;42.696;23.350;2022-11-21T08:05:43;4.03;;;1.20;;
40707;SDS011;26392;42.696;23.350;2022-11-21T08:08:09;3.33;;;1.58;;
40707;SDS011;26392;42.696;23.350;2022-11-21T08:10:37;2.78;;;1.73;;
40707;SDS011;26392;42.696;23.350;2022-11-21T08:13:06;3.53;;;1.63;;
40707;SDS011;26392;42.696;23.350;2022-11-21T08:15:32;2.63;;;1.60;;
40707;SDS011;26392;42.696;23.350;2022-11-21T08:17:57;2.13;;;1.25;;
40707;SDS011;26392;42.696;23.350;2022-11-21T08:20:23;2.13;;;1.42;;
40707;SDS011;26392;42.696;23.350;2022-11-21T08:22:48;2.28;;;1.25;;
40707;SDS011;26392;42.696;23.350;2022-11-21T08:25:14;3.63;;;1.35;;
40707;SDS011;26392;42.696;23.350;2022-11-21T08:27:39;1.63;;;1.13;;
40707;SDS011;26392;42.696;23.350;2022-11-21T08:30:08;6.90;;;1.60;;
40707;SDS011;26392;42.696;23.350;2022-11-21T08:32:35;2.10;;;1.27;;
40707;SDS011;26392;42.696;23.350;2022-11-21T08:35:01;2.42;;;1.40;;
40707;SDS011;26392;42.696;23.350;2022-11-21T08:37:29;6.22;;;2.03;;
40707;SDS011;26392;42.696;23.350;2022-11-21T08:39:55;2.35;;;1.50;;
40707;SDS011;26392;42.696;23.350;2022-11-21T08:42:23;1.30;;;1.15;;
40707;SDS011;26392;42.696;23.350;2022-11-21T08:44:48;1.73;;;1.10;;
40707;SDS011;26392;42.696;23.350;2022-11-21T08:47:13;4.47;;;2.70;;
40707;SDS011;26392;42.696;23.350;2022-11-21T08:49:39;1.85;;;1.40;;
40707;SDS011;26392;42.696;23.350;2022-11-21T08:52:04;3.25;;;1.40;;
40707;SDS011;26392;42.696;23.350;2022-11-21T08:54:30;2.83;;;1.77;;
40707;SDS011;26392;42.696;23.350;2022-11-21T08:56:55;3.83;;;2.00;;
40707;SDS011;26392;42.696;23.350;2022-11-21T08:59:20;3.30;;;1.70;;
40707;SDS011;26392;42.696;23.350;2022-11-21T09:01:46;5.07;;;1.60;;
40707;SDS011;26392;42.696;23.350;2022-11-21T09:04:11;3.53;;;2.08;;
40707;SDS011;26392;42.696;23.350;2022-11-21T09:06:37;3.45;;;2.10;;
40707;SDS011;26392;42.696;23.350;2022-11-21T09:09:05;2.40;;;1.73;;
40707;SDS011;26392;42.696;23.350;2022-11-21T09:11:33;2.67;;;1.63;;
40707;SDS011;26392;42.696;23.350;2022-11-21T09:14:01;1.77;;;1.17;;
40707;SDS011;26392;42.696;23.350;2022-11-21T09:16:46;2.55;;;1.83;;
40707;SDS011;26392;42.696;23.350;2022-11-21T09:19:30;3.55;;;1.45;;
40707;SDS011;26392;42.696;23.350;2022-11-21T09:21:56;2.95;;;1.50;;
40707;SDS011;26392;42.696;23.350;2022-11-21T09:24:21;3.38;;;1.50;;
40707;SDS011;26392;42.696;23.350;2022-11-21T09:26:47;3.55;;;2.20;;
40707;SDS011;26392;42.696;23.350;2022-11-21T09:29:16;6.80;;;2.15;;
40707;SDS011;26392;42.696;23.350;2022-11-21T09:34:25;5.20;;;3.13;;
40707;SDS011;26392;42.696;23.350;2022-11-21T09:36:51;6.53;;;2.22;;
40707;SDS011;26392;42.696;23.350;2022-11-21T09:39:17;7.82;;;1.65;;
40707;SDS011;26392;42.696;23.350;2022-11-21T09:47:31;2.97;;;2.00;;
40707;SDS011;26392;42.696;23.350;2022-11-21T09:50:03;4.38;;;2.30;;
40707;SDS011;26392;42.696;23.350;2022-11-21T09:52:39;4.45;;;2.38;;
40707;SDS011;26392;42.696;23.350;2022-11-21T09:55:19;6.75;;;3.70;;
40707;SDS011;26392;42.696;23.350;2022-11-21T09:57:49;2.92;;;2.33;;
40707;SDS011;26392;42.696;23.350;2022-11-21T10:00:18;3.90;;;2.20;;
40707;SDS011;26392;42.696;23.350;2022-11-21T10:02:46;3.63;;;1.70;;
40707;SDS011;26392;42.696;23.350;2022-11-21T10:05:12;1.75;;;1.30;;
40707;SDS011;26392;42.696;23.350;2022-11-21T10:07:39;4.03;;;1.70;;
40707;SDS011;26392;42.696;23.350;2022-11-21T10:12:59;2.33;;;1.77;;
40707;SDS011;26392;42.696;23.350;2022-11-21T10:29:30;8.18;;;2.83;;
40707;SDS011;26392;42.696;23.350;2022-11-21T10:32:24;2.90;;;2.28;;
40707;SDS011;26392;42.696;23.350;2022-11-21T10:34:58;5.50;;;1.88;;
40707;SDS011;26392;42.696;23.350;2022-11-21T10:39:58;3.42;;;2.33;;
40707;SDS011;26392;42.696;23.350;2022-11-21T10:43:17;2.83;;;1.77;;
40707;SDS011;26392;42.696;23.350;2022-11-21T10:46:12;2.53;;;1.88;;
40707;SDS011;26392;42.696;23.350;2022-11-21T10:48:38;3.58;;;2.25;;
40707;SDS011;26392;42.696;23.350;2022-11-21T10:54:04;4.72;;;2.60;;
40707;SDS011;26392;42.696;23.350;2022-11-21T10:56:53;4.57;;;2.80;;
40707;SDS011;26392;42.696;23.350;2022-11-21T10:59:24;6.57;;;3.67;;
40707;SDS011;26392;42.696;23.350;2022-11-21T11:02:34;3.97;;;2.92;;
40707;SDS011;26392;42.696;23.350;2022-11-21T11:04:43;3.95;;;2.97;;
40707;SDS011;26392;42.696;23.350;2022-11-21T11:07:25;4.05;;;2.53;;
40707;SDS011;26392;42.696;23.350;2022-11-21T11:09:52;3.45;;;2.45;;
40707;SDS011;26392;42.696;23.350;2022-11-21T11:12:56;6.22;;;3.20;;
40707;SDS011;26392;42.696;23.350;2022-11-21T11:18:28;3.38;;;2.13;;
40707;SDS011;26392;42.696;23.350;2022-11-21T11:23:46;5.15;;;2.58;;
40707;SDS011;26392;42.696;23.350;2022-11-21T11:28:49;2.28;;;1.90;;
40707;SDS011;26392;42.696;23.350;2022-11-21T11:31:14;3.85;;;2.38;;
40707;SDS011;26392;42.696;23.350;2022-11-21T11:38:59;3.00;;;1.80;;
40707;SDS011;26392;42.696;23.350;2022-11-21T11:44:49;2.47;;;1.70;;
40707;SDS011;26392;42.696;23.350;2022-11-21T11:47:33;3.92;;;1.75;;
40707;SDS011;26392;42.696;23.350;2022-11-21T11:50:10;3.50;;;1.33;;
40707;SDS011;26392;42.696;23.350;2022-11-21T11:55:32;3.33;;;1.33;;
40707;SDS011;26392;42.696;23.350;2022-11-21T11:58:23;4.75;;;1.77;;
40707;SDS011;26392;42.696;23.350;2022-11-21T12:06:15;2.88;;;2.05;;
40707;SDS011;26392;42.696;23.350;2022-11-21T12:08:55;2.33;;;1.58;;
40707;SDS011;26392;42.696;23.350;2022-11-21T12:14:36;2.30;;;1.60;;
40707;SDS011;26392;42.696;23.350;2022-11-21T12:17:16;2.50;;;1.92;;
40707;SDS011;26392;42.696;23.350;2022-11-21T12:19:45;2.63;;;1.73;;
40707;SDS011;26392;42.696;23.350;2022-11-21T12:22:15;3.75;;;1.63;;
40707;SDS011;26392;42.696;23.350;2022-11-21T12:24:42;3.75;;;2.10;;
40707;SDS011;26392;42.696;23.350;2022-11-21T12:27:23;2.88;;;1.85;;
40707;SDS011;26392;42.696;23.350;2022-11-21T12:30:04;3.38;;;1.90;;
40707;SDS011;26392;42.696;23.350;2022-11-21T12:35:33;2.50;;;1.60;;
40707;SDS011;26392;42.696;23.350;2022-11-21T12:41:10;1.88;;;1.30;;
40707;SDS011;26392;42.696;23.350;2022-11-21T12:46:38;6.38;;;2.22;;
40707;SDS011;26392;42.696;23.350;2022-11-21T12:52:27;3.30;;;2.67;;
40707;SDS011;26392;42.696;23.350;2022-11-21T12:55:22;3.55;;;1.90;;
40707;SDS011;26392;42.696;23.350;2022-11-21T13:00:36;2.67;;;2.20;;
40707;SDS011;26392;42.696;23.350;2022-11-21T13:06:01;6.03;;;2.35;;
40707;SDS011;26392;42.696;23.350;2022-11-21T13:08:38;4.78;;;2.42;;
40707;SDS011;26392;42.696;23.350;2022-11-21T13:24:59;3.90;;;2.40;;
40707;SDS011;26392;42.696;23.350;2022-11-21T13:45:46;3.72;;;2.40;;
40707;SDS011;26392;42.696;23.350;2022-11-21T13:59:39;5.00;;;3.00;;
40707;SDS011;26392;42.696;23.350;2022-11-21T14:05:12;5.15;;;3.58;;
40707;SDS011;26392;42.696;23.350;2022-11-21T14:10:52;6.78;;;3.13;;
40707;SDS011;26392;42.696;23.350;2022-11-21T14:13:28;6.60;;;3.38;;
40707;SDS011;26392;42.696;23.350;2022-11-21T14:18:47;6.82;;;3.53;;
40707;SDS011;26392;42.696;23.350;2022-11-21T14:21:20;5.90;;;3.20;;
40707;SDS011;26392;42.696;23.350;2022-11-21T14:23:51;5.88;;;3.30;;
40707;SDS011;26392;42.696;23.350;2022-11-21T14:26:20;6.82;;;3.50;;
40707;SDS011;26392;42.696;23.350;2022-11-21T14:28:46;5.28;;;2.90;;
40707;SDS011;26392;42.696;23.350;2022-11-21T14:31:12;4.85;;;2.92;;
40707;SDS011;26392;42.696;23.350;2022-11-21T14:33:39;4.75;;;2.90;;
40707;SDS011;26392;42.696;23.350;2022-11-21T14:41:34;5.05;;;2.67;;
40707;SDS011;26392;42.696;23.350;2022-11-21T14:46:33;5.43;;;3.20;;
40707;SDS011;26392;42.696;23.350;2022-11-21T14:51:34;4.78;;;2.67;;
40707;SDS011;26392;42.696;23.350;2022-11-21T14:54:00;3.35;;;2.70;;
40707;SDS011;26392;42.696;23.350;2022-11-21T14:56:30;4.22;;;2.88;;
40707;SDS011;26392;42.696;23.350;2022-11-21T14:58:57;4.40;;;2.75;;
40707;SDS011;26392;42.696;23.350;2022-11-21T15:01:29;5.03;;;3.45;;
40707;SDS011;26392;42.696;23.350;2022-11-21T15:03:59;5.60;;;3.60;;
40707;SDS011;26392;42.696;23.350;2022-11-21T15:06:27;6.93;;;3.38;;
40707;SDS011;26392;42.696;23.350;2022-11-21T15:08:57;6.32;;;3.60;;
40707;SDS011;26392;42.696;23.350;2022-11-21T15:11:28;5.22;;;3.67;;
40707;SDS011;26392;42.696;23.350;2022-11-21T15:14:04;7.85;;;3.45;;
40707;SDS011;26392;42.696;23.350;2022-11-21T15:16:37;5.10;;;3.45;;
40707;SDS011;26392;42.696;23.350;2022-11-21T15:19:09;7.07;;;3.55;;
40707;SDS011;26392;42.696;23.350;2022-11-21T15:21:35;6.20;;;3.40;;
40707;SDS011;26392;42.696;23.350;2022-11-21T15:24:14;5.90;;;3.55;;
40707;SDS011;26392;42.696;23.350;2022-11-21T15:26:53;7.85;;;4.15;;
40707;SDS011;26392;42.696;23.350;2022-11-21T15:29:18;5.70;;;3.63;;
40707;SDS011;26392;42.696;23.350;2022-11-21T15:31:45;4.57;;;3.00;;
40707;SDS011;26392;42.696;23.350;2022-11-21T15:34:11;4.35;;;3.05;;
40707;SDS011;26392;42.696;23.350;2022-11-21T15:39:48;12.05;;;4.32;;
40707;SDS011;26392;42.696;23.350;2022-11-21T15:44:59;7.50;;;4.03;;
40707;SDS011;26392;42.696;23.350;2022-11-21T15:47:26;7.60;;;3.85;;
40707;SDS011;26392;42.696;23.350;2022-11-21T15:49:52;6.60;;;3.83;;
40707;SDS011;26392;42.696;23.350;2022-11-21T15:52:18;8.80;;;4.65;;
40707;SDS011;26392;42.696;23.350;2022-11-21T15:54:43;7.18;;;4.05;;
40707;SDS011;26392;42.696;23.350;2022-11-21T15:57:09;7.53;;;4.20;;
40707;SDS011;26392;42.696;23.350;2022-11-21T15:59:34;6.90;;;3.92;;
40707;SDS011;26392;42.696;23.350;2022-11-21T16:01:59;9.60;;;4.70;;
40707;SDS011;26392;42.696;23.350;2022-11-21T16:04:25;6.88;;;3.67;;
40707;SDS011;26392;42.696;23.350;2022-11-21T16:06:51;5.70;;;3.35;;
40707;SDS011;26392;42.696;23.350;2022-11-21T16:09:16;6.32;;;3.60;;
40707;SDS011;26392;42.696;23.350;2022-11-21T16:11:43;6.80;;;3.83;;
40707;SDS011;26392;42.696;23.350;2022-11-21T16:14:11;6.63;;;4.32;;
40707;SDS011;26392;42.696;23.350;2022-11-21T16:16:39;6.72;;;4.10;;
40707;SDS011;26392;42.696;23.350;2022-11-21T16:19:06;6.30;;;4.03;;
40707;SDS011;26392;42.696;23.350;2022-11-21T16:21:34;5.57;;;3.80;;
40707;SDS011;26392;42.696;23.350;2022-11-21T16:24:00;6.07;;;3.75;;
40707;SDS011;26392;42.696;23.350;2022-11-21T16:26:26;5.25;;;3.53;;
40707;SDS011;26392;42.696;23.350;2022-11-21T16:28:54;4.32;;;3.42;;
40707;SDS011;26392;42.696;23.350;2022-11-21T16:31:21;6.43;;;3.85;;
40707;SDS011;26392;42.696;23.350;2022-11-21T16:33:48;7.28;;;4.03;;
40707;SDS011;26392;42.696;23.350;2022-11-21T16:36:18;6.60;;;4.22;;
40707;SDS011;26392;42.696;23.350;2022-11-21T16:38:48;8.65;;;3.45;;
40707;SDS011;26392;42.696;23.350;2022-11-21T16:41:15;6.80;;;3.72;;
40707;SDS011;26392;42.696;23.350;2022-11-21T16:43:45;8.88;;;3.95;;
40707;SDS011;26392;42.696;23.350;2022-11-21T16:46:12;6.18;;;3.55;;
40707;SDS011;26392;42.696;23.350;2022-11-21T16:48:37;9.25;;;4.18;;
40707;SDS011;26392;42.696;23.350;2022-11-21T16:51:09;5.82;;;3.83;;
40707;SDS011;26392;42.696;23.350;2022-11-21T16:53:39;7.20;;;4.30;;
40707;SDS011;26392;42.696;23.350;2022-11-21T16:56:05;5.85;;;3.60;;
40707;SDS011;26392;42.696;23.350;2022-11-21T16:58:31;4.45;;;3.40;;
40707;SDS011;26392;42.696;23.350;2022-11-21T17:00:56;6.45;;;3.97;;
40707;SDS011;26392;42.696;23.350;2022-11-21T17:03:21;5.22;;;3.65;;
40707;SDS011;26392;42.696;23.350;2022-11-21T17:05:57;6.43;;;3.95;;
40707;SDS011;26392;42.696;23.350;2022-11-21T17:08:23;6.93;;;4.38;;
40707;SDS011;26392;42.696;23.350;2022-11-21T17:10:49;8.43;;;4.78;;
40707;SDS011;26392;42.696;23.350;2022-11-21T17:13:14;8.95;;;5.15;;
40707;SDS011;26392;42.696;23.350;2022-11-21T17:15:40;9.45;;;4.10;;
40707;SDS011;26392;42.696;23.350;2022-11-21T17:18:05;7.82;;;5.20;;
40707;SDS011;26392;42.696;23.350;2022-11-21T17:20:30;5.60;;;3.92;;